Derby, New York
Current Conditions -  °F | °C
As of 9:53 AM on Sunday 21 Dec 2014 (Local Time) from KDKK Reporting Station
Overcast Overcast  
Wind Chill: 27°   Ceiling: 2300
Heat Index: 32°   Visibility: 10mi
Dew Point: 23°   Wind: 5mph
Humidity: 69%   Direction: 270°W
Pressure: 30.32"   Gusts: NA
Location:  42.68°N, 78.97°W
Report Text: KDKK 211453Z AUTO 27004KT 10SM OVC023 00/M05 A3032 RMK AO2 SLP277 T00001050 51008 $
Loading
Personal Weather Stations






























Interactive Weather Map New forecast layout! Learn more

10-Day Weather Forecast

Advertisements
Track Severe Weather on mobile